Time;durP1;ratioP1;P1;durP2;ratioP2;P2;SDS_P1;SDS_P2;PMS_P1;PMS_P2;Temp;Humidity;BMP_temperature;BMP_pressure;BME280_temperature;BME280_humidity;BME280_pressure;Samples;Min_cycle;Max_cycle;Signal;HPM_P1;HPM_P2
2020/12/03 00:00:33;;;;;;;15.13;11.95;;;;;;;;;;5121578;28;20187;-92
2020/12/03 00:03:05;;;;;;;16.55;13.20;;;;;;;;;;5121791;28;20202;-92
2020/12/03 00:05:33;;;;;;;19.48;13.65;;;;;;;;;;5121023;28;20488;-91
2020/12/03 00:08:00;;;;;;;14.50;11.75;;;;;;;;;;5121654;28;20206;-93
2020/12/03 00:10:28;;;;;;;11.85;10.35;;;;;;;;;;5121103;28;20195;-90
2020/12/03 00:13:04;;;;;;;13.23;9.85;;;;;;;;;;5121137;28;20215;-91
2020/12/03 00:15:31;;;;;;;15.88;10.55;;;;;;;;;;5121249;28;20203;-91
2020/12/03 00:17:58;;;;;;;13.40;9.82;;;;;;;;;;5120648;28;20184;-93
2020/12/03 00:20:26;;;;;;;12.75;10.15;;;;;;;;;;5121852;28;20200;-93
2020/12/03 00:22:53;;;;;;;13.80;10.43;;;;;;;;;;5121104;28;20195;-92
2020/12/03 00:25:20;;;;;;;12.55;9.15;;;;;;;;;;5120550;28;20260;-90
2020/12/03 00:27:51;;;;;;;12.57;9.90;;;;;;;;;;5120694;28;20462;-93
2020/12/03 00:30:19;;;;;;;13.48;10.52;;;;;;;;;;5121339;27;20278;-91
2020/12/03 00:32:46;;;;;;;13.55;9.65;;;;;;;;;;5120376;28;20545;-92
2020/12/03 00:35:14;;;;;;;12.18;9.68;;;;;;;;;;5121663;28;20196;-94
2020/12/03 00:37:42;;;;;;;14.15;10.52;;;;;;;;;;5120811;28;20195;-92
2020/12/03 00:40:09;;;;;;;11.45;9.70;;;;;;;;;;5120190;28;20573;-90
2020/12/03 00:42:36;;;;;;;14.95;10.52;;;;;;;;;;5119979;28;20180;-92
2020/12/03 00:45:06;;;;;;;13.07;10.82;;;;;;;;;;5120997;28;20205;-91
2020/12/03 00:47:33;;;;;;;13.45;11.20;;;;;;;;;;5120311;28;20183;-91
2020/12/03 00:50:00;;;;;;;15.38;10.95;;;;;;;;;;5121465;28;20190;-90
2020/12/03 00:52:27;;;;;;;12.95;10.00;;;;;;;;;;5120598;28;20192;-90
2020/12/03 00:54:54;;;;;;;16.58;10.75;;;;;;;;;;5120778;28;20214;-91
2020/12/03 00:57:21;;;;;;;13.55;11.60;;;;;;;;;;5119573;28;20224;-89
2020/12/03 00:59:51;;;;;;;13.77;10.48;;;;;;;;;;5119783;28;20180;-94
2020/12/03 01:02:19;;;;;;;14.52;11.35;;;;;;;;;;5120021;28;20172;-91
2020/12/03 01:04:46;;;;;;;14.65;12.38;;;;;;;;;;5119693;28;20196;-89
2020/12/03 01:07:13;;;;;;;16.80;10.90;;;;;;;;;;5119197;28;20747;-89
2020/12/03 01:09:42;;;;;;;16.30;12.35;;;;;;;;;;5119104;28;20273;-94
2020/12/03 01:12:10;;;;;;;14.30;11.45;;;;;;;;;;5120390;28;20196;-93
2020/12/03 01:14:38;;;;;;;13.10;10.13;;;;;;;;;;5119531;28;20203;-91
2020/12/03 01:17:09;;;;;;;12.73;10.57;;;;;;;;;;5119967;28;20198;-91
2020/12/03 01:19:38;;;;;;;12.07;10.32;;;;;;;;;;5119706;28;20180;-92
2020/12/03 01:22:05;;;;;;;14.52;10.93;;;;;;;;;;5119590;28;20272;-93
2020/12/03 01:24:33;;;;;;;11.30;9.65;;;;;;;;;;5120463;28;20214;-94
2020/12/03 01:27:00;;;;;;;12.30;9.95;;;;;;;;;;5119340;28;20298;-91
2020/12/03 01:29:27;;;;;;;16.02;10.35;;;;;;;;;;5119642;28;20557;-92
2020/12/03 01:31:55;;;;;;;13.52;9.82;;;;;;;;;;5119576;28;20257;-94
2020/12/03 01:34:22;;;;;;;14.65;10.80;;;;;;;;;;5119398;28;20214;-95
2020/12/03 01:36:50;;;;;;;13.25;10.07;;;;;;;;;;5119849;28;20195;-92
2020/12/03 01:39:18;;;;;;;14.35;10.43;;;;;;;;;;5119099;28;20180;-91
2020/12/03 01:41:45;;;;;;;13.35;10.95;;;;;;;;;;5119488;28;20196;-92
2020/12/03 01:44:12;;;;;;;11.32;9.77;;;;;;;;;;5119552;28;20192;-91
2020/12/03 01:46:40;;;;;;;16.33;10.85;;;;;;;;;;5119479;28;20207;-90
2020/12/03 01:49:15;;;;;;;13.00;9.98;;;;;;;;;;5119248;28;20184;-93
2020/12/03 01:51:46;;;;;;;12.63;9.25;;;;;;;;;;5119235;28;20225;-91
2020/12/03 01:54:16;;;;;;;13.15;10.30;;;;;;;;;;5118832;28;20212;-90
2020/12/03 01:56:58;;;;;;;12.93;10.75;;;;;;;;;;5118919;28;20249;-92
2020/12/03 01:59:32;;;;;;;14.93;11.35;;;;;;;;;;5119974;28;20273;-93
2020/12/03 02:01:59;;;;;;;14.50;10.80;;;;;;;;;;5119496;28;20449;-91
2020/12/03 02:04:27;;;;;;;12.35;9.77;;;;;;;;;;5120442;28;20201;-92
2020/12/03 02:07:01;;;;;;;13.88;10.20;;;;;;;;;;5119493;28;20222;-93
2020/12/03 02:09:29;;;;;;;16.58;11.35;;;;;;;;;;5119464;28;20195;-89
2020/12/03 02:11:57;;;;;;;14.30;10.55;;;;;;;;;;5118964;28;20172;-90
2020/12/03 02:14:24;;;;;;;14.63;10.50;;;;;;;;;;5118631;28;20222;-89
2020/12/03 02:16:51;;;;;;;13.80;10.95;;;;;;;;;;5119700;28;20192;-90
2020/12/03 02:19:23;;;;;;;14.90;11.48;;;;;;;;;;5118770;28;20482;-92
2020/12/03 02:21:59;;;;;;;14.05;10.07;;;;;;;;;;5123530;28;20214;-93
2020/12/03 02:24:26;;;;;;;13.48;10.25;;;;;;;;;;5123797;28;20196;-92
2020/12/03 02:26:53;;;;;;;13.32;10.43;;;;;;;;;;5122909;27;20477;-93
2020/12/03 02:29:21;;;;;;;12.98;10.00;;;;;;;;;;5123102;28;20208;-90
2020/12/03 02:31:49;;;;;;;18.77;13.43;;;;;;;;;;5123405;28;20176;-91
2020/12/03 02:34:17;;;;;;;13.68;10.55;;;;;;;;;;5122562;28;20283;-92
2020/12/03 02:36:49;;;;;;;14.57;12.27;;;;;;;;;;5123192;27;20203;-91
2020/12/03 02:39:17;;;;;;;16.58;12.35;;;;;;;;;;5123162;28;20191;-92
2020/12/03 02:41:43;;;;;;;14.20;11.80;;;;;;;;;;5122314;28;20533;-91
2020/12/03 02:44:47;;;;;;;15.35;11.73;;;;;;;;;;5122450;28;20195;-91
2020/12/03 02:47:18;;;;;;;14.77;10.27;;;;;;;;;;5122642;28;20176;-92
2020/12/03 02:49:45;;;;;;;16.15;11.02;;;;;;;;;;5122492;28;20176;-92
2020/12/03 02:52:16;;;;;;;14.77;11.90;;;;;;;;;;5122530;28;20553;-93
2020/12/03 02:54:44;;;;;;;16.42;11.38;;;;;;;;;;5122371;28;20219;-90
2020/12/03 02:57:12;;;;;;;15.95;11.93;;;;;;;;;;5122138;28;20681;-90
2020/12/03 02:59:40;;;;;;;14.18;10.23;;;;;;;;;;5122074;28;20176;-88
2020/12/03 03:02:07;;;;;;;12.82;10.13;;;;;;;;;;5122141;28;20187;-88
2020/12/03 03:04:34;;;;;;;15.63;12.02;;;;;;;;;;5122156;28;20176;-90
2020/12/03 03:07:02;;;;;;;14.38;12.23;;;;;;;;;;5122957;28;20210;-90
2020/12/03 03:09:29;;;;;;;14.48;10.93;;;;;;;;;;5121874;28;20595;-90
2020/12/03 03:11:57;;;;;;;15.10;9.73;;;;;;;;;;5121741;28;20192;-90
2020/12/03 03:14:24;;;;;;;20.17;14.05;;;;;;;;;;5121860;28;20200;-91
2020/12/03 03:16:51;;;;;;;15.98;12.43;;;;;;;;;;5122848;28;20222;-91
2020/12/03 03:19:19;;;;;;;13.55;10.90;;;;;;;;;;5121785;28;20493;-91
2020/12/03 03:21:46;;;;;;;12.00;9.75;;;;;;;;;;5122202;28;20180;-94
2020/12/03 03:24:13;;;;;;;13.98;11.13;;;;;;;;;;5122543;28;20195;-92
2020/12/03 03:26:41;;;;;;;13.65;11.15;;;;;;;;;;5121885;28;20226;-92
2020/12/03 03:29:09;;;;;;;13.85;9.95;;;;;;;;;;5122202;28;20207;-91
2020/12/03 03:31:36;;;;;;;16.00;12.00;;;;;;;;;;5120391;28;20176;-89
2020/12/03 03:34:04;;;;;;;12.82;10.82;;;;;;;;;;5121504;28;20200;-88
2020/12/03 03:36:31;;;;;;;15.00;11.95;;;;;;;;;;5121254;28;20450;-90
2020/12/03 03:38:58;;;;;;;15.65;10.80;;;;;;;;;;5121660;28;20176;-90
2020/12/03 03:41:26;;;;;;;14.18;10.48;;;;;;;;;;5122191;28;20206;-91
2020/12/03 03:43:53;;;;;;;15.15;10.35;;;;;;;;;;5121626;28;20188;-92
2020/12/03 03:46:21;;;;;;;16.33;11.77;;;;;;;;;;5121252;28;20191;-89
2020/12/03 03:48:48;;;;;;;14.70;11.50;;;;;;;;;;5121148;28;20530;-90
2020/12/03 03:51:16;;;;;;;15.52;10.65;;;;;;;;;;5121359;28;20195;-93
2020/12/03 03:53:43;;;;;;;15.60;10.82;;;;;;;;;;5121478;28;20546;-90
2020/12/03 03:56:12;;;;;;;14.73;10.52;;;;;;;;;;5120934;28;20557;-91
2020/12/03 03:58:38;;;;;;;15.30;11.45;;;;;;;;;;5121395;28;20190;-89
2020/12/03 04:01:05;;;;;;;13.82;10.80;;;;;;;;;;5121248;28;20195;-90
2020/12/03 04:03:33;;;;;;;14.02;10.32;;;;;;;;;;5121036;28;20284;-90
2020/12/03 04:06:00;;;;;;;14.80;11.23;;;;;;;;;;5120595;28;20184;-88
2020/12/03 04:08:28;;;;;;;13.45;9.88;;;;;;;;;;5120341;28;20180;-90
2020/12/03 04:10:55;;;;;;;16.25;11.75;;;;;;;;;;5120619;28;20176;-89
2020/12/03 04:13:25;;;;;;;17.77;12.57;;;;;;;;;;5120828;28;20199;-89
2020/12/03 04:15:52;;;;;;;21.00;15.75;;;;;;;;;;5120293;28;20593;-89
2020/12/03 04:18:25;;;;;;;23.13;15.35;;;;;;;;;;5120699;28;20198;-91
2020/12/03 04:20:55;;;;;;;22.35;15.65;;;;;;;;;;5120528;28;20553;-91
2020/12/03 04:23:22;;;;;;;21.95;16.23;;;;;;;;;;5120756;28;20207;-89
2020/12/03 04:25:50;;;;;;;24.30;16.92;;;;;;;;;;5120413;28;20218;-89
2020/12/03 04:28:17;;;;;;;27.20;19.67;;;;;;;;;;5120128;28;20192;-94
2020/12/03 04:30:44;;;;;;;25.35;17.67;;;;;;;;;;5121092;28;20463;-90
2020/12/03 04:33:11;;;;;;;22.42;16.05;;;;;;;;;;5121384;28;20559;-91
2020/12/03 04:35:39;;;;;;;22.13;16.50;;;;;;;;;;5120675;28;20208;-90
2020/12/03 04:38:08;;;;;;;24.98;18.88;;;;;;;;;;5120743;27;20475;-91
2020/12/03 04:40:39;;;;;;;21.65;15.43;;;;;;;;;;5122150;28;20303;-93
2020/12/03 04:43:22;;;;;;;22.83;16.80;;;;;;;;;;5121220;28;20200;-93
2020/12/03 04:45:56;;;;;;;24.38;17.20;;;;;;;;;;5124499;27;20271;-94
2020/12/03 04:48:59;;;;;;;19.65;15.65;;;;;;;;;;5120790;28;20213;-93
2020/12/03 04:51:49;;;;;;;22.40;15.90;;;;;;;;;;5120119;28;20175;-95
2020/12/03 04:54:27;;;;;;;24.25;18.25;;;;;;;;;;5120426;28;20282;-93
2020/12/03 04:57:03;;;;;;;22.20;16.05;;;;;;;;;;5119644;28;20262;-94
2020/12/03 04:59:46;;;;;;;21.40;14.90;;;;;;;;;;5121078;28;20287;-93
2020/12/03 05:02:44;;;;;;;22.58;17.75;;;;;;;;;;5122726;28;20203;-95
2020/12/03 05:05:24;;;;;;;25.08;17.63;;;;;;;;;;5122878;28;20556;-95
2020/12/03 05:08:08;;;;;;;22.48;16.30;;;;;;;;;;5122553;28;20274;-95
2020/12/03 05:10:46;;;;;;;24.38;16.23;;;;;;;;;;5121509;28;20287;-95
2020/12/03 05:13:19;;;;;;;20.58;14.68;;;;;;;;;;5119786;28;20568;-94
2020/12/03 05:15:51;;;;;;;24.60;17.05;;;;;;;;;;5123904;28;20498;-95
2020/12/03 05:18:40;;;;;;;22.92;16.23;;;;;;;;;;5124799;28;20202;-95
2020/12/03 05:21:16;;;;;;;21.27;14.45;;;;;;;;;;5122151;28;20195;-95
2020/12/03 05:23:44;;;;;;;21.77;14.05;;;;;;;;;;5120479;28;20202;-95
2020/12/03 05:26:18;;;;;;;18.30;14.10;;;;;;;;;;5120849;28;20212;-96
2020/12/03 05:29:15;;;;;;;19.00;13.15;;;;;;;;;;5122121;28;20203;-94
2020/12/03 05:31:45;;;;;;;20.83;13.98;;;;;;;;;;5081429;28;20193;-95
2020/12/03 05:34:18;;;;;;;15.38;11.70;;;;;;;;;;5078074;28;20307;-96
2020/12/03 05:37:00;;;;;;;16.00;12.05;;;;;;;;;;5080055;28;20209;-95
2020/12/03 05:39:29;;;;;;;17.55;11.63;;;;;;;;;;5077995;28;20200;-93
2020/12/03 05:42:02;;;;;;;15.20;12.10;;;;;;;;;;5077840;28;20173;-95
2020/12/03 05:44:42;;;;;;;17.98;13.95;;;;;;;;;;5079171;28;20219;-94
2020/12/03 05:47:24;;;;;;;20.05;13.95;;;;;;;;;;5047750;28;20201;-96
2020/12/03 05:49:58;;;;;;;21.38;13.98;;;;;;;;;;5080176;28;20205;-92
2020/12/03 05:52:27;;;;;;;20.30;16.17;;;;;;;;;;5081809;28;20258;-93
2020/12/03 05:55:04;;;;;;;19.90;14.13;;;;;;;;;;5079780;28;20231;-94
2020/12/03 05:57:36;;;;;;;16.88;12.43;;;;;;;;;;5123265;28;20279;-93
2020/12/03 06:00:19;;;;;;;18.05;12.25;;;;;;;;;;5122221;28;20267;-94
2020/12/03 06:03:08;;;;;;;19.45;12.77;;;;;;;;;;5119114;28;20222;-92
2020/12/03 06:05:44;;;;;;;17.23;13.15;;;;;;;;;;5120629;28;20204;-92
2020/12/03 06:08:42;;;;;;;16.45;11.68;;;;;;;;;;5118939;28;20452;-93
2020/12/03 06:11:26;;;;;;;19.45;14.15;;;;;;;;;;5122491;28;20600;-92
2020/12/03 06:14:42;;;;;;;17.23;12.50;;;;;;;;;;5120719;28;20199;-93
2020/12/03 06:17:24;;;;;;;22.52;16.13;;;;;;;;;;5121594;28;20271;-94
2020/12/03 06:20:04;;;;;;;21.17;15.15;;;;;;;;;;5123112;28;20310;-94
2020/12/03 06:23:17;;;;;;;17.33;13.60;;;;;;;;;;5122284;28;20198;-92
2020/12/03 06:25:47;;;;;;;19.60;13.50;;;;;;;;;;5078092;28;20303;-93
2020/12/03 06:28:51;;;;;;;19.58;13.60;;;;;;;;;;5079977;28;20208;-96
2020/12/03 06:31:26;;;;;;;18.60;14.15;;;;;;;;;;5080001;28;20205;-93
2020/12/03 06:34:09;;;;;;;22.58;14.82;;;;;;;;;;5082479;28;20204;-94
2020/12/03 06:36:41;;;;;;;16.30;11.65;;;;;;;;;;5076045;28;20282;-93
2020/12/03 06:39:38;;;;;;;17.38;12.13;;;;;;;;;;5077773;28;20531;-92
2020/12/03 06:42:15;;;;;;;17.83;13.57;;;;;;;;;;5076638;28;20554;-92
2020/12/03 06:44:46;;;;;;;17.13;12.60;;;;;;;;;;5077930;28;20189;-93
2020/12/03 06:48:04;;;;;;;15.80;10.93;;;;;;;;;;5078502;28;20275;-94
2020/12/03 06:51:00;;;;;;;15.43;11.25;;;;;;;;;;5074153;28;20589;-95
2020/12/03 06:53:48;;;;;;;14.60;10.82;;;;;;;;;;5076599;28;20192;-91
2020/12/03 06:56:36;;;;;;;16.23;10.90;;;;;;;;;;5076722;28;20228;-92
2020/12/03 06:59:25;;;;;;;16.17;12.18;;;;;;;;;;5077042;28;20515;-91
2020/12/03 07:02:46;;;;;;;15.82;10.88;;;;;;;;;;5083648;28;20196;-91
2020/12/03 07:05:43;;;;;;;16.23;12.48;;;;;;;;;;5032179;28;20224;-91
2020/12/03 07:08:49;;;;;;;12.63;10.00;;;;;;;;;;5060373;28;20570;-93
2020/12/03 07:11:53;;;;;;;14.80;11.05;;;;;;;;;;5060486;28;20185;-92
2020/12/03 07:15:03;;;;;;;17.88;11.93;;;;;;;;;;5060229;28;20280;-91
2020/12/03 07:18:30;;;;;;;14.90;10.98;;;;;;;;;;5059674;28;20178;-91
2020/12/03 07:21:37;;;;;;;16.55;11.55;;;;;;;;;;4959307;28;20215;-94
2020/12/03 07:24:08;;;;;;;18.02;11.40;;;;;;;;;;4961720;29;20551;-91
2020/12/03 07:27:12;;;;;;;16.58;11.95;;;;;;;;;;4961951;29;20243;-92
2020/12/03 07:29:58;;;;;;;16.38;10.93;;;;;;;;;;4962552;28;20292;-93
2020/12/03 07:32:44;;;;;;;14.65;10.93;;;;;;;;;;4962160;29;20209;-92
2020/12/03 07:35:30;;;;;;;15.80;10.88;;;;;;;;;;4961851;28;20201;-92
2020/12/03 07:38:10;;;;;;;15.32;10.85;;;;;;;;;;4962516;29;20503;-95
2020/12/03 07:40:43;;;;;;;16.35;12.15;;;;;;;;;;4965097;28;20166;-95
2020/12/03 07:43:21;;;;;;;14.00;10.48;;;;;;;;;;5040074;28;20571;-94
2020/12/03 07:45:49;;;;;;;18.55;12.65;;;;;;;;;;5040457;28;20269;-93
2020/12/03 07:48:45;;;;;;;16.23;12.15;;;;;;;;;;5042508;28;20241;-95
2020/12/03 07:51:17;;;;;;;13.27;9.68;;;;;;;;;;5041773;28;20277;-92
2020/12/03 07:53:46;;;;;;;18.80;11.30;;;;;;;;;;5041001;28;20209;-92
2020/12/03 07:56:38;;;;;;;15.88;11.75;;;;;;;;;;5081680;28;20220;-91
2020/12/03 07:59:36;;;;;;;18.30;13.90;;;;;;;;;;5108284;27;20192;-95
2020/12/03 08:02:49;;;;;;;17.60;13.07;;;;;;;;;;5127785;28;20204;-95
2020/12/03 08:05:55;;;;;;;18.90;13.93;;;;;;;;;;5125218;28;20474;-94
2020/12/03 08:09:16;;;;;;;15.95;11.18;;;;;;;;;;5125905;28;20424;-96
2020/12/03 08:11:51;;;;;;;16.77;11.43;;;;;;;;;;5061613;28;20567;-96
2020/12/03 08:15:04;;;;;;;15.90;12.85;;;;;;;;;;5062918;28;20255;-96
2020/12/03 08:18:14;;;;;;;16.73;12.68;;;;;;;;;;5004025;28;20224;-96
2020/12/03 08:21:05;;;;;;;16.17;12.35;;;;;;;;;;4979630;28;20287;-95
2020/12/03 08:23:32;;;;;;;17.33;13.45;;;;;;;;;;4965062;29;20228;-93
2020/12/03 08:26:03;;;;;;;14.50;10.60;;;;;;;;;;4964689;29;20252;-95
2020/12/03 08:28:33;;;;;;;13.05;10.57;;;;;;;;;;4962602;29;20296;-93
2020/12/03 08:31:00;;;;;;;14.95;12.30;;;;;;;;;;4964089;28;20272;-93
2020/12/03 08:33:32;;;;;;;14.20;11.35;;;;;;;;;;4964212;29;20228;-94
2020/12/03 08:36:01;;;;;;;15.73;11.02;;;;;;;;;;4963789;29;20233;-91
2020/12/03 08:38:35;;;;;;;15.60;11.88;;;;;;;;;;4963752;29;20296;-92
2020/12/03 08:41:05;;;;;;;17.98;12.90;;;;;;;;;;4974202;28;20203;-92
2020/12/03 08:43:34;;;;;;;16.48;12.63;;;;;;;;;;5061794;28;20205;-95
2020/12/03 08:46:08;;;;;;;15.88;11.35;;;;;;;;;;5060091;28;20371;-92
2020/12/03 08:48:38;;;;;;;16.63;11.70;;;;;;;;;;5120724;28;20520;-94
2020/12/03 08:51:08;;;;;;;15.25;11.32;;;;;;;;;;5123738;28;20264;-93
2020/12/03 08:53:37;;;;;;;19.10;14.57;;;;;;;;;;5123142;28;20571;-96
2020/12/03 08:56:40;;;;;;;17.58;12.70;;;;;;;;;;5121967;28;20231;-95
2020/12/03 08:59:10;;;;;;;15.85;12.15;;;;;;;;;;5122113;28;20521;-94
2020/12/03 09:01:45;;;;;;;13.45;10.60;;;;;;;;;;5125612;28;20180;-96
2020/12/03 09:04:17;;;;;;;21.08;13.52;;;;;;;;;;5124016;28;20176;-93
2020/12/03 09:06:48;;;;;;;19.85;13.32;;;;;;;;;;5126775;27;20204;-92
2020/12/03 09:09:19;;;;;;;18.88;13.82;;;;;;;;;;5124254;28;20287;-91
2020/12/03 09:11:47;;;;;;;16.45;11.93;;;;;;;;;;5121983;28;20202;-95
2020/12/03 09:14:15;;;;;;;20.30;12.90;;;;;;;;;;5121092;28;20212;-93
2020/12/03 09:16:48;;;;;;;19.83;12.95;;;;;;;;;;5123260;28;20626;-96
2020/12/03 09:19:24;;;;;;;16.60;11.48;;;;;;;;;;5087945;28;20196;-92
2020/12/03 09:21:51;;;;;;;17.63;12.93;;;;;;;;;;5123074;27;20191;-92
2020/12/03 09:24:24;;;;;;;19.92;13.85;;;;;;;;;;5122214;28;20251;-94
2020/12/03 09:27:20;;;;;;;13.75;11.15;;;;;;;;;;5124431;28;20225;-94
2020/12/03 09:29:51;;;;;;;13.05;10.15;;;;;;;;;;5120527;28;20569;-92
2020/12/03 09:32:32;;;;;;;17.20;9.60;;;;;;;;;;5127147;28;20191;-95
2020/12/03 09:35:09;;;;;;;13.93;10.48;;;;;;;;;;5083702;28;20223;-94
2020/12/03 09:37:37;;;;;;;12.00;9.02;;;;;;;;;;5084107;28;20222;-95
2020/12/03 09:40:08;;;;;;;11.10;8.70;;;;;;;;;;5085377;28;20191;-95
2020/12/03 09:43:19;;;;;;;11.43;8.95;;;;;;;;;;5083256;28;20515;-96
2020/12/03 09:45:49;;;;;;;13.80;10.88;;;;;;;;;;4966583;28;20212;-95
2020/12/03 09:48:18;;;;;;;12.80;9.15;;;;;;;;;;4963527;28;20243;-94
2020/12/03 09:50:49;;;;;;;13.75;10.07;;;;;;;;;;4961093;29;20538;-93
2020/12/03 09:53:33;;;;;;;13.10;9.88;;;;;;;;;;4985231;28;20261;-94
2020/12/03 09:56:03;;;;;;;14.43;10.85;;;;;;;;;;5000250;28;20333;-95
2020/12/03 09:58:37;;;;;;;13.75;9.98;;;;;;;;;;5005913;28;20306;-95
2020/12/03 10:01:12;;;;;;;15.05;9.65;;;;;;;;;;5004145;28;20286;-95
2020/12/03 10:04:40;;;;;;;13.82;9.23;;;;;;;;;;4957293;28;20223;-96
2020/12/03 10:07:21;;;;;;;12.40;8.80;;;;;;;;;;4846790;29;20452;-94
2020/12/03 10:10:12;;;;;;;11.88;9.23;;;;;;;;;;4854050;29;20307;-94
2020/12/03 10:13:10;;;;;;;15.27;10.98;;;;;;;;;;4864443;29;20209;-89
2020/12/03 10:15:59;;;;;;;11.57;8.63;;;;;;;;;;4864480;29;20204;-90
2020/12/03 10:18:38;;;;;;;12.65;9.32;;;;;;;;;;4864774;29;20248;-93
2020/12/03 10:21:05;;;;;;;13.20;9.38;;;;;;;;;;4865239;29;20227;-92
2020/12/03 10:23:50;;;;;;;10.88;8.70;;;;;;;;;;4949029;28;20193;-93
2020/12/03 10:26:31;;;;;;;10.18;9.00;;;;;;;;;;5035630;28;20226;-93
2020/12/03 10:29:16;;;;;;;12.93;9.15;;;;;;;;;;5037748;28;20216;-90
2020/12/03 10:31:44;;;;;;;12.18;8.82;;;;;;;;;;5037394;28;20220;-93
2020/12/03 10:34:13;;;;;;;10.98;9.80;;;;;;;;;;5036696;28;20183;-92
2020/12/03 10:36:51;;;;;;;11.23;8.45;;;;;;;;;;5036768;28;20214;-93
2020/12/03 10:39:19;;;;;;;12.18;9.38;;;;;;;;;;5036758;28;20191;-92
2020/12/03 10:41:52;;;;;;;10.05;8.10;;;;;;;;;;5039015;28;20213;-94
2020/12/03 10:44:21;;;;;;;12.45;9.27;;;;;;;;;;5105695;28;20191;-89
2020/12/03 10:46:53;;;;;;;11.93;8.68;;;;;;;;;;5123072;28;20188;-92
2020/12/03 10:49:23;;;;;;;12.52;9.40;;;;;;;;;;5123243;28;20212;-94
2020/12/03 10:51:51;;;;;;;11.77;8.88;;;;;;;;;;5123275;28;20530;-93
2020/12/03 10:54:20;;;;;;;11.60;9.18;;;;;;;;;;5123170;28;20253;-92
2020/12/03 10:56:50;;;;;;;13.43;10.15;;;;;;;;;;5122614;28;20227;-93
2020/12/03 11:02:22;;;;;;;13.02;8.77;;;;;;;;;;5121940;28;20192;-90
2020/12/03 11:04:51;;;;;;;9.65;8.55;;;;;;;;;;5122311;28;20201;-92
2020/12/03 11:07:18;;;;;;;10.52;8.98;;;;;;;;;;5122590;28;20192;-92
2020/12/03 11:09:52;;;;;;;11.90;9.90;;;;;;;;;;5122237;28;20180;-95
2020/12/03 11:12:19;;;;;;;9.60;8.25;;;;;;;;;;5122547;28;20211;-92
2020/12/03 11:14:47;;;;;;;11.60;9.32;;;;;;;;;;5122171;28;20184;-93
2020/12/03 11:18:01;;;;;;;13.50;8.80;;;;;;;;;;5121732;28;20212;-93
2020/12/03 11:20:32;;;;;;;12.80;8.38;;;;;;;;;;5122414;28;20204;-93
2020/12/03 11:23:06;;;;;;;10.77;7.97;;;;;;;;;;5122517;28;20184;-93
2020/12/03 11:25:36;;;;;;;10.30;8.48;;;;;;;;;;5127712;28;20247;-96
2020/12/03 11:28:14;;;;;;;14.05;9.48;;;;;;;;;;5123866;28;20191;-96
2020/12/03 11:30:56;;;;;;;11.02;8.27;;;;;;;;;;5127754;28;20196;-92
2020/12/03 11:36:14;;;;;;;10.50;9.30;;;;;;;;;;5084683;28;20213;-95
2020/12/03 11:38:44;;;;;;;10.07;8.20;;;;;;;;;;5080733;28;20220;-94
2020/12/03 11:41:27;;;;;;;10.60;7.80;;;;;;;;;;5083446;28;20197;-94
2020/12/03 11:50:16;;;;;;;9.88;7.55;;;;;;;;;;5081915;28;20188;-96
2020/12/03 11:52:43;;;;;;;13.25;8.50;;;;;;;;;;5080609;28;20193;-95
2020/12/03 11:55:21;;;;;;;8.05;7.25;;;;;;;;;;5083301;28;20225;-92
2020/12/03 11:57:50;;;;;;;10.45;8.15;;;;;;;;;;5082532;28;20644;-93
2020/12/03 12:00:19;;;;;;;11.13;9.48;;;;;;;;;;5082768;28;20223;-94
2020/12/03 12:02:48;;;;;;;13.38;9.65;;;;;;;;;;5081231;28;20201;-96
2020/12/03 12:05:23;;;;;;;10.85;8.65;;;;;;;;;;5081141;28;20493;-95
2020/12/03 12:08:06;;;;;;;13.32;10.13;;;;;;;;;;5080809;28;20284;-95
2020/12/03 12:10:36;;;;;;;12.18;9.73;;;;;;;;;;5081401;28;20259;-95
2020/12/03 12:13:04;;;;;;;13.38;9.82;;;;;;;;;;5082206;28;20272;-95
2020/12/03 12:15:31;;;;;;;12.23;10.50;;;;;;;;;;5081025;28;20280;-94
2020/12/03 12:17:58;;;;;;;13.68;9.80;;;;;;;;;;5080368;28;20216;-95
2020/12/03 12:20:25;;;;;;;12.30;9.32;;;;;;;;;;5080529;28;20288;-93
2020/12/03 12:22:52;;;;;;;10.93;9.07;;;;;;;;;;5081379;28;20197;-93
2020/12/03 12:25:19;;;;;;;13.68;10.93;;;;;;;;;;5080495;28;20224;-91
2020/12/03 12:27:47;;;;;;;9.25;7.95;;;;;;;;;;5080672;28;20276;-94
2020/12/03 12:30:15;;;;;;;11.82;9.40;;;;;;;;;;5081554;28;20225;-92
2020/12/03 12:32:42;;;;;;;11.20;9.18;;;;;;;;;;5029637;28;20207;-93
2020/12/03 12:35:09;;;;;;;10.95;9.20;;;;;;;;;;5079727;28;20229;-92
2020/12/03 12:37:36;;;;;;;11.75;9.23;;;;;;;;;;5080128;28;20219;-93
2020/12/03 12:40:04;;;;;;;13.75;10.93;;;;;;;;;;5080223;28;20189;-92
2020/12/03 12:42:31;;;;;;;12.20;9.60;;;;;;;;;;5080456;28;20189;-95
2020/12/03 12:44:58;;;;;;;15.45;10.98;;;;;;;;;;5079941;28;20571;-94
2020/12/03 12:47:27;;;;;;;16.35;13.00;;;;;;;;;;5079794;28;20464;-92
2020/12/03 12:49:54;;;;;;;15.32;12.48;;;;;;;;;;5080412;28;20211;-93
2020/12/03 12:52:21;;;;;;;14.52;10.75;;;;;;;;;;5080089;28;20551;-94
2020/12/03 12:54:48;;;;;;;12.25;9.80;;;;;;;;;;5079521;28;20177;-95
2020/12/03 12:57:15;;;;;;;15.35;11.68;;;;;;;;;;5079895;28;20201;-95
2020/12/03 12:59:42;;;;;;;16.33;13.10;;;;;;;;;;5079459;28;20561;-91
2020/12/03 13:02:09;;;;;;;14.65;11.50;;;;;;;;;;5079702;28;20207;-95
2020/12/03 13:04:37;;;;;;;14.82;10.98;;;;;;;;;;5079910;28;20279;-96
2020/12/03 13:07:07;;;;;;;18.88;12.32;;;;;;;;;;5079911;28;20176;-92
2020/12/03 13:09:34;;;;;;;16.55;11.27;;;;;;;;;;5080232;28;20552;-95
2020/12/03 13:12:01;;;;;;;16.08;13.38;;;;;;;;;;5080175;28;20194;-92
2020/12/03 13:14:28;;;;;;;16.70;12.60;;;;;;;;;;5079462;28;20200;-94
2020/12/03 13:16:56;;;;;;;15.20;11.77;;;;;;;;;;5079518;28;20193;-94
2020/12/03 13:19:24;;;;;;;16.20;12.32;;;;;;;;;;5079735;28;20302;-93
2020/12/03 13:21:52;;;;;;;17.20;12.57;;;;;;;;;;5079516;28;20201;-93
2020/12/03 13:24:19;;;;;;;17.05;12.85;;;;;;;;;;5079224;28;20453;-91
2020/12/03 13:26:46;;;;;;;16.33;11.63;;;;;;;;;;5078852;28;20303;-96
2020/12/03 13:29:13;;;;;;;13.75;10.57;;;;;;;;;;5078989;28;20189;-94
2020/12/03 13:31:40;;;;;;;16.27;12.40;;;;;;;;;;5079299;28;20196;-93
2020/12/03 13:34:07;;;;;;;17.08;12.70;;;;;;;;;;5078242;28;20225;-93
2020/12/03 13:36:35;;;;;;;18.75;14.05;;;;;;;;;;5078817;28;20246;-91
2020/12/03 13:39:03;;;;;;;17.60;13.05;;;;;;;;;;5079055;28;20217;-93
2020/12/03 13:41:30;;;;;;;17.77;13.73;;;;;;;;;;5079562;28;20595;-93
2020/12/03 13:43:57;;;;;;;15.75;11.15;;;;;;;;;;5078808;28;20196;-90
2020/12/03 13:46:24;;;;;;;18.50;12.25;;;;;;;;;;5078631;28;20204;-95
2020/12/03 13:48:51;;;;;;;18.88;13.82;;;;;;;;;;5079082;28;20193;-89
2020/12/03 13:51:18;;;;;;;18.25;12.48;;;;;;;;;;5078248;28;20633;-94
2020/12/03 13:53:45;;;;;;;17.52;12.52;;;;;;;;;;5079127;28;20189;-89
2020/12/03 13:56:14;;;;;;;15.32;11.65;;;;;;;;;;5078702;28;20225;-95
2020/12/03 13:58:41;;;;;;;17.13;13.25;;;;;;;;;;5079322;28;20221;-94
2020/12/03 14:01:08;;;;;;;16.20;11.88;;;;;;;;;;5079504;28;20524;-91
2020/12/03 14:03:35;;;;;;;16.42;11.80;;;;;;;;;;5078406;28;20178;-92
2020/12/03 14:06:02;;;;;;;16.20;12.30;;;;;;;;;;5079177;28;20197;-91
2020/12/03 14:08:29;;;;;;;15.40;12.60;;;;;;;;;;5079131;28;20204;-88
2020/12/03 14:10:56;;;;;;;19.52;12.68;;;;;;;;;;5078515;28;20193;-93
2020/12/03 14:13:24;;;;;;;16.95;13.43;;;;;;;;;;5078191;28;20268;-89
2020/12/03 14:15:51;;;;;;;12.20;10.48;;;;;;;;;;5079555;28;20203;-94
2020/12/03 14:18:18;;;;;;;14.85;11.65;;;;;;;;;;5082442;28;20197;-94
2020/12/03 14:20:45;;;;;;;16.17;11.65;;;;;;;;;;5082803;28;20535;-94
2020/12/03 14:23:13;;;;;;;16.15;12.30;;;;;;;;;;5083036;28;20462;-89
2020/12/03 14:25:39;;;;;;;15.10;12.07;;;;;;;;;;5082516;28;20560;-91
2020/12/03 14:28:06;;;;;;;14.27;12.65;;;;;;;;;;5082532;28;20470;-94
2020/12/03 14:30:34;;;;;;;15.77;11.57;;;;;;;;;;5082357;28;20185;-93
2020/12/03 14:33:01;;;;;;;16.15;11.95;;;;;;;;;;5082792;28;20197;-91
2020/12/03 14:35:28;;;;;;;15.18;11.68;;;;;;;;;;5081652;28;20233;-93
2020/12/03 14:37:55;;;;;;;14.45;11.77;;;;;;;;;;5082297;28;20181;-93
2020/12/03 14:40:22;;;;;;;17.88;12.90;;;;;;;;;;5082073;28;20185;-93
2020/12/03 14:42:49;;;;;;;13.60;11.30;;;;;;;;;;5082363;28;20279;-91
2020/12/03 14:45:17;;;;;;;15.93;12.52;;;;;;;;;;5081670;28;20452;-88
2020/12/03 14:47:46;;;;;;;15.57;12.18;;;;;;;;;;5031575;28;20291;-89
2020/12/03 14:50:17;;;;;;;17.25;12.30;;;;;;;;;;5082193;28;20451;-90
2020/12/03 14:52:48;;;;;;;15.90;11.63;;;;;;;;;;5082154;28;20198;-94
2020/12/03 14:55:15;;;;;;;15.60;11.45;;;;;;;;;;5082230;28;20271;-89
2020/12/03 14:57:42;;;;;;;16.70;12.52;;;;;;;;;;5081183;28;20282;-89
2020/12/03 15:00:09;;;;;;;15.13;12.20;;;;;;;;;;5081217;28;20208;-89
2020/12/03 15:02:36;;;;;;;14.45;10.85;;;;;;;;;;5081713;28;20453;-90
2020/12/03 15:05:06;;;;;;;15.20;11.75;;;;;;;;;;5081085;28;20199;-89
2020/12/03 15:07:33;;;;;;;15.05;11.25;;;;;;;;;;5081906;28;20193;-88
2020/12/03 15:10:03;;;;;;;16.05;12.40;;;;;;;;;;5081435;28;20185;-88
2020/12/03 15:12:30;;;;;;;14.70;10.00;;;;;;;;;;5081637;28;20201;-89